D/T METAR WX W/SPE G/SPE TEMP DEWP FEEL
31/01/23 05:50 EGXZ 310550Z AUTO /////KT 9999 OVC016/// 09/06 Q1016 9°C 6°C 8.6°C
31/01/23 04:20 EGXZ 310420Z AUTO /////KT 9999 OVC019/// 09/05 Q1017 9°C 5°C 8.3°C
30/01/23 21:50 EGXZ 302150Z AUTO /////KT 9999 OVC023/// 08/03 Q1022 8°C 3°C 6.7°C
30/01/23 12:50 EGXZ 301250Z AUTO /////KT 9999 NCD 09/01 Q1022 9°C 1°C 7.1°C
30/01/23 11:50 EGXZ 301150Z AUTO /////KT 9999 NCD 09/02 Q1022 9°C 2°C 7.4°C
30/01/23 10:50 EGXZ 301050Z AUTO /////KT 9999 NCD 09/02 Q1021 9°C 2°C 7.4°C
30/01/23 10:20 EGXZ 301020Z AUTO /////KT 9999 NCD 08/02 Q1021 8°C 2°C 6.4°C
30/01/23 09:50 EGXZ 300950Z AUTO /////KT 9999 NCD 08/01 Q1020 8°C 1°C 6.1°C
30/01/23 07:50 EGXZ 300750Z AUTO /////KT 9999 NCD 06/00 Q1019 6°C 0°C 3.8°C
30/01/23 06:20 EGXZ 300620Z AUTO /////KT 9999 NCD 06/M00 Q1017 6°C 0°C 3.8°C
09/01/23 06:20 EGXZ 090620Z AUTO 24003KT 9999 // FEW220/// 06/02 Q0989 3.5mph 6°C 2°C 4.4°C
09/01/23 05:50 EGXZ 090550Z AUTO 23006KT 9999 -RA OVC024/// 07/04 Q0989 -RA 6.9mph 7°C 4°C 6.0°C
09/01/23 05:20 EGXZ 090520Z AUTO 23005KT 9999 BKN025/// BKN046/// 07/04 Q0988 5.8mph 7°C 4°C 6.0°C
09/01/23 04:50 EGXZ 090450Z AUTO 23002KT 9999 FEW039/// BKN180/// 07/03 Q0988 2.3mph 7°C 3°C 5.7°C
09/01/23 04:20 EGXZ 090420Z AUTO 22006KT 9999 FEW024/// OVC180/// 06/04 Q0987 6.9mph 6°C 4°C 5.0°C
09/01/23 03:50 EGXZ 090350Z AUTO 21006KT 9999 SCT023/// SCT044/// 06/04 Q0987 6.9mph 6°C 4°C 5.0°C
09/01/23 03:20 EGXZ 090320Z AUTO 18008KT 9999 FEW023/// OVC037/// 05/04 Q0987 9.2mph 5°C 4°C 4.0°C
09/01/23 02:50 EGXZ 090250Z AUTO 17006KT 9999 FEW026/// OVC037/// 05/04 Q0986 6.9mph 5°C 4°C 4.0°C
09/01/23 02:20 EGXZ 090220Z AUTO 18007KT 9999 FEW026/// SCT044/// 04/03 Q0986 8.1mph 4°C 3°C 2.7°C
09/01/23 01:20 EGXZ 090120Z AUTO 21008KT 9999 NCD 04/02 Q0985 9.2mph 4°C 2°C 2.4°C
09/01/23 00:50 EGXZ 090050Z AUTO 18006KT 9999 FEW041/// SCT210/// 04/02 Q0985 6.9mph 4°C 2°C 2.4°C
09/01/23 00:20 EGXZ 090020Z AUTO 21009KT 9999 FEW043/// SCT200/// 05/03 Q0985 10.4mph 5°C 3°C 3.7°C
08/01/23 23:50 EGXZ 082350Z AUTO 21010KT 9999 // FEW048/// BKN110/// 05/03 Q0985 11.5mph 5°C 3°C 3.7°C
08/01/23 23:20 EGXZ 082320Z AUTO 20010KT 9999 // FEW018/// BKN044/// BKN100/// 05/03 Q0984 11.5mph 5°C 3°C 3.7°C
08/01/23 22:50 EGXZ 082250Z AUTO 20011KT 9999 -DZ FEW028/// 05/02 Q0984 -DZ 12.7mph 5°C 2°C 3.4°C
08/01/23 22:20 EGXZ 082220Z AUTO 21015KT 9999 // FEW047/// 05/02 Q0984 17.3mph 5°C 2°C 3.4°C
08/01/23 21:50 EGXZ 082150Z AUTO 22013KT 9999 // FEW032/// SCT061/// 06/03 Q0984 15.0mph 6°C 3°C 4.7°C
08/01/23 20:20 EGXZ 082020Z AUTO 16009KT 9999 FEW051/// BKN100/// 04/02 Q0983 10.4mph 4°C 2°C 2.4°C
08/01/23 19:20 EGXZ 081920Z AUTO 15008KT 9999 OVC140/// 04/02 Q0983 9.2mph 4°C 2°C 2.4°C
08/01/23 18:50 EGXZ 081850Z AUTO 16007KT 9999 BKN150/// 04/03 Q0983 8.1mph 4°C 3°C 2.7°C
08/01/23 18:20 EGXZ 081820Z AUTO 15008KT 9999 OVC160/// 03/02 Q0983 9.2mph 3°C 2°C 1.4°C
08/01/23 17:50 EGXZ 081750Z AUTO 16006KT 9999 FEW021/// OVC170/// 03/02 Q0983 6.9mph 3°C 2°C 1.4°C
08/01/23 17:20 EGXZ 081720Z AUTO 16008KT 9999 BKN020/// SCT170/// 04/02 Q0984 9.2mph 4°C 2°C 2.4°C
08/01/23 16:50 EGXZ 081650Z AUTO 16005KT 9999 SCT021/// SCT110/// 04/02 Q0984 5.8mph 4°C 2°C 2.4°C
08/01/23 16:20 EGXZ 081620Z AUTO 18008KT 9999 FEW019/// OVC130/// 05/03 Q0984 9.2mph 5°C 3°C 3.7°C
08/01/23 15:50 EGXZ 081550Z AUTO 21012KT 9999 FEW022/// 06/03 Q0984 13.8mph 6°C 3°C 4.7°C
08/01/23 15:20 EGXZ 081520Z AUTO 21008KT 9999 // SCT020/// 06/03 Q0983 9.2mph 6°C 3°C 4.7°C
08/01/23 14:20 EGXZ 081420Z AUTO 19013KT 9999 RA OVC009/// 07/05 Q0983 RA 15.0mph 7°C 5°C 6.3°C
08/01/23 13:50 EGXZ 081350Z AUTO 14013KT 9999 -RA OVC011/// 06/05 Q0983 -RA 15.0mph 6°C 5°C 5.3°C
08/01/23 13:20 EGXZ 081320Z AUTO 15015KT 7000 RA FEW015/// OVC022/// 07/05 Q0983 RA 17.3mph 7°C 5°C 6.3°C
08/01/23 12:50 EGXZ 081250Z AUTO 15013KT 9999 -RA FEW021/// BKN028/// 06/05 Q0984 -RA 15.0mph 6°C 5°C 5.3°C
08/01/23 12:20 EGXZ 081220Z AUTO 16016KT 9999 SCT016/// BKN100/// 07/04 Q0985 18.4mph 7°C 4°C 6.0°C
08/01/23 11:50 EGXZ 081150Z AUTO 16013KT 9999 FEW016/// 06/04 Q0985 15.0mph 6°C 4°C 5.0°C
08/01/23 11:20 EGXZ 081120Z AUTO 16009KT 9999 FEW064/// 06/04 Q0986 10.4mph 6°C 4°C 5.0°C
08/01/23 10:50 EGXZ 081050Z AUTO 15012KT 9999 SCT073/// 06/03 Q0986 13.8mph 6°C 3°C 4.7°C
08/01/23 10:20 EGXZ 081020Z AUTO 16010KT 9999 FEW068/// 06/03 Q0987 11.5mph 6°C 3°C 4.7°C
08/01/23 09:50 EGXZ 080950Z AUTO 17011KT 9999 NCD 06/03 Q0987 12.7mph 6°C 3°C 4.7°C
08/01/23 09:20 EGXZ 080920Z AUTO 16009KT 9999 FEW089/// 06/03 Q0987 10.4mph 6°C 3°C 4.7°C
08/01/23 08:50 EGXZ 080850Z AUTO 14008KT 9999 FEW110/// 05/03 Q0987 9.2mph 5°C 3°C 3.7°C
08/01/23 08:20 EGXZ 080820Z AUTO 15011KT 9999 FEW078/// BKN120/// 05/04 Q0988 12.7mph 5°C 4°C 4.0°C
08/01/23 07:50 EGXZ 080750Z AUTO 15012KT 9999 OVC100/// 06/04 Q0987 13.8mph 6°C 4°C 5.0°C
08/01/23 07:20 EGXZ 080720Z AUTO 13010KT 9999 FEW022/// BKN048/// BKN110/// 06/04 Q0988 11.5mph 6°C 4°C 5.0°C
08/01/23 06:50 EGXZ 080650Z AUTO 15008KT 9999 FEW059/// BKN140/// 06/04 Q0988 9.2mph 6°C 4°C 5.0°C
08/01/23 06:20 EGXZ 080620Z AUTO 15009KT 9999 NCD 05/03 Q0988 10.4mph 5°C 3°C 3.7°C
08/01/23 05:50 EGXZ 080550Z AUTO 17011KT 9999 NCD 06/04 Q0988 12.7mph 6°C 4°C 5.0°C
08/01/23 05:20 EGXZ 080520Z AUTO 16008KT 9999 FEW021/// 05/03 Q0988 9.2mph 5°C 3°C 3.7°C
08/01/23 04:50 EGXZ 080450Z AUTO 17009KT 9999 OVC023/// 06/04 Q0988 10.4mph 6°C 4°C 5.0°C
08/01/23 04:20 EGXZ 080420Z AUTO 17008KT 9999 OVC022/// 07/04 Q0988 9.2mph 7°C 4°C 6.0°C
08/01/23 03:50 EGXZ 080350Z AUTO 19010KT 9999 SCT031/// 07/04 Q0988 11.5mph 7°C 4°C 6.0°C
08/01/23 03:20 EGXZ 080320Z AUTO 20013KT 9999 SCT032/// BKN098/// 08/04 Q0988 15.0mph 8°C 4°C 7.0°C
08/01/23 02:50 EGXZ 080250Z AUTO 21013KT 9999 SCT042/// BKN087/// 08/04 Q0988 15.0mph 8°C 4°C 7.0°C
08/01/23 02:20 EGXZ 080220Z AUTO 20014KT 9999 FEW024/// 08/04 Q0988 16.1mph 8°C 4°C 7.0°C
08/01/23 01:50 EGXZ 080150Z AUTO 20014KT 9999 FEW025/// BKN038/// 08/04 Q0988 16.1mph 8°C 4°C 7.0°C
08/01/23 01:20 EGXZ 080120Z AUTO 19011KT 9999 OVC024/// 08/04 Q0988 12.7mph 8°C 4°C 7.0°C
08/01/23 00:20 EGXZ 080020Z AUTO 15009KT 9999 // BKN023/// 07/04 Q0988 10.4mph 7°C 4°C 6.0°C
07/01/23 23:50 EGXZ 072350Z AUTO 16014KT 9999 // FEW044/// 06/04 Q0988 16.1mph 6°C 4°C 5.0°C
07/01/23 23:20 EGXZ 072320Z AUTO 19016KT 9999 -RA BKN023/// BKN042/// 07/04 Q0988 -RA 18.4mph 7°C 4°C 6.0°C
07/01/23 22:50 EGXZ 072250Z AUTO 17013KT 9999 // BKN024/// BKN042/// 07/04 Q0988 15.0mph 7°C 4°C 6.0°C
07/01/23 22:20 EGXZ 072220Z AUTO 17013G23KT 9999 -RA FEW035/// BKN045/// 07/04 Q0988 -RA 15.0mph 26.5mph 7°C 4°C 6.0°C
07/01/23 21:50 EGXZ 072150Z AUTO 18015KT 9999 -DZ FEW033/// BKN046/// 07/04 Q0988 -DZ 17.3mph 7°C 4°C 6.0°C
07/01/23 21:20 EGXZ 072120Z AUTO 18013KT 9999 BKN040/// SCT120/// 07/04 Q0988 15.0mph 7°C 4°C 6.0°C
07/01/23 20:50 EGXZ 072050Z AUTO 18011KT 9999 NCD 07/03 Q0988 12.7mph 7°C 3°C 5.7°C
07/01/23 20:20 EGXZ 072020Z AUTO 20013KT 9999 FEW099/// 08/04 Q0988 15.0mph 8°C 4°C 7.0°C
07/01/23 19:50 EGXZ 071950Z AUTO 18010KT 9999 // FEW023/// SCT087/// 08/05 Q0988 11.5mph 8°C 5°C 7.3°C
07/01/23 19:20 EGXZ 071920Z AUTO 18010KT 9999 // FEW025/// BKN068/// 08/06 Q0988 11.5mph 8°C 6°C 7.6°C
07/01/23 18:50 EGXZ 071850Z AUTO 20015KT 9999 -RA OVC022/// 09/06 Q0988 -RA 17.3mph 9°C 6°C 8.6°C
07/01/23 18:20 EGXZ 071820Z AUTO 18012KT 9999 -RA OVC032/// 09/06 Q0988 -RA 13.8mph 9°C 6°C 8.6°C
07/01/23 17:50 EGXZ 071750Z AUTO 16008KT 9999 -RA FEW033/// SCT049/// BKN100/// 09/06 Q0988 -RA 9.2mph 9°C 6°C 8.6°C
07/01/23 17:20 EGXZ 071720Z AUTO 18014KT 9999 OVC032/// 10/06 Q0988 16.1mph 10°C 6°C 9.6°C
07/01/23 16:50 EGXZ 071650Z AUTO 18014KT 9999 OVC033/// 10/06 Q0988 16.1mph 10°C 6°C 9.6°C
07/01/23 16:20 EGXZ 071620Z AUTO 18007KT 9999 OVC034/// 09/06 Q0988 8.1mph 9°C 6°C 8.6°C
07/01/23 15:50 EGXZ 071550Z AUTO 16012KT 9999 FEW048/// 09/06 Q0988 13.8mph 9°C 6°C 8.6°C
07/01/23 15:20 EGXZ 071520Z AUTO 16010KT 9999 BKN064/// 09/06 Q0989 11.5mph 9°C 6°C 8.6°C
07/01/23 14:50 EGXZ 071450Z AUTO 18010KT 9999 NCD 09/06 Q0989 11.5mph 9°C 6°C 8.6°C
07/01/23 14:20 EGXZ 071420Z AUTO 20009KT 9999 FEW032/// 11/06 Q0989 10.4mph 11°C 6°C 10.6°C
07/01/23 13:50 EGXZ 071350Z AUTO 21012KT 9999 OVC034/// 11/06 Q0990 13.8mph 11°C 6°C 10.6°C
07/01/23 12:50 EGXZ 071250Z AUTO 20015KT 9999 // OVC039/// 11/09 Q0990 17.3mph 11°C 9°C 11.8°C
07/01/23 12:20 EGXZ 071220Z AUTO 18014KT 9999 // SCT048/// SCT062/// 11/09 Q0990 16.1mph 11°C 9°C 11.8°C
07/01/23 11:50 EGXZ 071150Z AUTO 17014KT 9999 -RA SCT007/// SCT054/// BKN069/// 11/10 Q0990 -RA 16.1mph 11°C 10°C 12.3°C
07/01/23 11:20 EGXZ 071120Z AUTO 16013KT 7000 -RA OVC004/// 10/09 Q0990 -RA 15.0mph 10°C 9°C 10.8°C
07/01/23 10:50 EGXZ 071050Z AUTO 16013KT 1300 +RA OVC005/// 10/09 Q0991 +RA 15.0mph 10°C 9°C 10.8°C
07/01/23 10:20 EGXZ 071020Z AUTO 16013KT 6000 RA BKN009/// OVC018/// 10/09 Q0991 RA 15.0mph 10°C 9°C 10.8°C
07/01/23 09:50 EGXZ 070950Z AUTO 17013KT 9999 -RA FEW011/// OVC033/// 10/09 Q0992 -RA 15.0mph 10°C 9°C 10.8°C
07/01/23 09:20 EGXZ 070920Z AUTO 18015KT 3800 RA SCT007/// BKN037/// 10/09 Q0992 RA 17.3mph 10°C 9°C 10.8°C
07/01/23 08:50 EGXZ 070850Z AUTO 16021KT 5000 -RA OVC007/// 10/10 Q0992 -RA 24.2mph 10°C 10°C 11.3°C
07/01/23 08:20 EGXZ 070820Z AUTO 16019KT 7000 -RA BKN009/// OVC026/// 11/09 Q0992 -RA 21.9mph 11°C 9°C 11.8°C